sensor_id;sensor_type;location;lat;lon;timestamp;P1;durP1;ratioP1;P2;durP2;ratioP2
61570;SDS011;47463;49.884;10.010;2022-09-29T00:00:00;8.2;;;5;;
61570;SDS011;47463;49.884;10.010;2022-09-29T00:05:00;7.8;;;5.1;;
61570;SDS011;47463;49.884;10.010;2022-09-29T00:10:00;7.8;;;5.1;;
61570;SDS011;47463;49.884;10.010;2022-09-29T00:15:00;6.7;;;4.7;;
61570;SDS011;47463;49.884;10.010;2022-09-29T00:20:00;6.7;;;4.7;;
61570;SDS011;47463;49.884;10.010;2022-09-29T00:25:00;8;;;5;;
61570;SDS011;47463;49.884;10.010;2022-09-29T00:30:00;8;;;5;;
61570;SDS011;47463;49.884;10.010;2022-09-29T00:35:00;11.3;;;5.7;;
61570;SDS011;47463;49.884;10.010;2022-09-29T00:40:00;11.3;;;5.7;;
61570;SDS011;47463;49.884;10.010;2022-09-29T00:45:04;7.6;;;4.9;;
61570;SDS011;47463;49.884;10.010;2022-09-29T00:50:00;7.6;;;4.9;;
61570;SDS011;47463;49.884;10.010;2022-09-29T00:55:01;10.3;;;5;;
61570;SDS011;47463;49.884;10.010;2022-09-29T01:00:00;10.3;;;5;;
61570;SDS011;47463;49.884;10.010;2022-09-29T01:05:00;10.9;;;5.9;;
61570;SDS011;47463;49.884;10.010;2022-09-29T01:10:00;10.9;;;5.9;;
61570;SDS011;47463;49.884;10.010;2022-09-29T01:15:00;11.2;;;6.1;;
61570;SDS011;47463;49.884;10.010;2022-09-29T01:20:02;11.2;;;6.1;;
61570;SDS011;47463;49.884;10.010;2022-09-29T01:25:04;9;;;5.2;;
61570;SDS011;47463;49.884;10.010;2022-09-29T01:30:03;9;;;5.2;;
61570;SDS011;47463;49.884;10.010;2022-09-29T01:35:02;7.1;;;4.7;;
61570;SDS011;47463;49.884;10.010;2022-09-29T01:40:02;7.1;;;4.7;;
61570;SDS011;47463;49.884;10.010;2022-09-29T01:45:01;9.2;;;5.8;;
61570;SDS011;47463;49.884;10.010;2022-09-29T01:50:01;9.2;;;5.8;;
61570;SDS011;47463;49.884;10.010;2022-09-29T01:55:00;8.3;;;5.2;;
61570;SDS011;47463;49.884;10.010;2022-09-29T02:00:00;8.3;;;5.2;;
61570;SDS011;47463;49.884;10.010;2022-09-29T02:05:00;8.8;;;5.5;;
61570;SDS011;47463;49.884;10.010;2022-09-29T02:10:00;8.8;;;5.5;;
61570;SDS011;47463;49.884;10.010;2022-09-29T02:15:00;8.2;;;5.3;;
61570;SDS011;47463;49.884;10.010;2022-09-29T02:20:00;8.2;;;5.3;;
61570;SDS011;47463;49.884;10.010;2022-09-29T02:25:00;8.8;;;5.7;;
61570;SDS011;47463;49.884;10.010;2022-09-29T02:30:00;8.8;;;5.7;;
61570;SDS011;47463;49.884;10.010;2022-09-29T02:35:00;8.3;;;5.7;;
61570;SDS011;47463;49.884;10.010;2022-09-29T02:40:03;8.3;;;5.7;;
61570;SDS011;47463;49.884;10.010;2022-09-29T02:45:05;8.5;;;5.6;;
61570;SDS011;47463;49.884;10.010;2022-09-29T02:50:03;8.5;;;5.6;;
61570;SDS011;47463;49.884;10.010;2022-09-29T02:55:02;10.1;;;6.4;;
61570;SDS011;47463;49.884;10.010;2022-09-29T03:00:00;10.1;;;6.4;;
61570;SDS011;47463;49.884;10.010;2022-09-29T03:05:00;11.8;;;7.3;;
61570;SDS011;47463;49.884;10.010;2022-09-29T03:10:00;11.8;;;7.3;;
61570;SDS011;47463;49.884;10.010;2022-09-29T03:15:00;11.1;;;7.1;;
61570;SDS011;47463;49.884;10.010;2022-09-29T03:20:00;11.1;;;7.1;;
61570;SDS011;47463;49.884;10.010;2022-09-29T03:25:00;11.8;;;7.5;;
61570;SDS011;47463;49.884;10.010;2022-09-29T03:30:00;11.8;;;7.5;;
61570;SDS011;47463;49.884;10.010;2022-09-29T03:35:00;9.8;;;6.6;;
61570;SDS011;47463;49.884;10.010;2022-09-29T03:40:00;9.8;;;6.6;;
61570;SDS011;47463;49.884;10.010;2022-09-29T03:45:00;12.6;;;7.2;;
61570;SDS011;47463;49.884;10.010;2022-09-29T03:50:00;12.6;;;7.2;;
61570;SDS011;47463;49.884;10.010;2022-09-29T03:55:00;14.7;;;7.5;;
61570;SDS011;47463;49.884;10.010;2022-09-29T04:00:00;14.7;;;7.5;;
61570;SDS011;47463;49.884;10.010;2022-09-29T04:05:00;10.2;;;6.7;;
61570;SDS011;47463;49.884;10.010;2022-09-29T04:10:00;10.2;;;6.7;;
61570;SDS011;47463;49.884;10.010;2022-09-29T04:15:00;10.6;;;7.3;;
61570;SDS011;47463;49.884;10.010;2022-09-29T04:20:00;10.6;;;7.3;;
61570;SDS011;47463;49.884;10.010;2022-09-29T04:25:00;11.5;;;7.8;;
61570;SDS011;47463;49.884;10.010;2022-09-29T04:30:00;11.5;;;7.8;;
61570;SDS011;47463;49.884;10.010;2022-09-29T04:35:00;13.5;;;8.8;;
61570;SDS011;47463;49.884;10.010;2022-09-29T04:40:00;13.5;;;8.8;;
61570;SDS011;47463;49.884;10.010;2022-09-29T04:45:00;10;;;7.5;;
61570;SDS011;47463;49.884;10.010;2022-09-29T04:50:00;10;;;7.5;;
61570;SDS011;47463;49.884;10.010;2022-09-29T04:55:00;11;;;8.1;;
61570;SDS011;47463;49.884;10.010;2022-09-29T05:00:00;11;;;8.1;;
61570;SDS011;47463;49.884;10.010;2022-09-29T05:05:00;13.4;;;9;;
61570;SDS011;47463;49.884;10.010;2022-09-29T05:10:00;13.4;;;9;;
61570;SDS011;47463;49.884;10.010;2022-09-29T05:15:00;11.9;;;8;;
61570;SDS011;47463;49.884;10.010;2022-09-29T05:20:00;11.9;;;8;;
61570;SDS011;47463;49.884;10.010;2022-09-29T05:25:00;14.3;;;8.6;;
61570;SDS011;47463;49.884;10.010;2022-09-29T05:30:00;14.3;;;8.6;;
61570;SDS011;47463;49.884;10.010;2022-09-29T05:35:00;12.4;;;7.6;;
61570;SDS011;47463;49.884;10.010;2022-09-29T05:40:00;12.4;;;7.6;;
61570;SDS011;47463;49.884;10.010;2022-09-29T05:45:00;12.5;;;7;;
61570;SDS011;47463;49.884;10.010;2022-09-29T05:50:00;12.5;;;7;;
61570;SDS011;47463;49.884;10.010;2022-09-29T05:55:00;10.5;;;6.1;;
61570;SDS011;47463;49.884;10.010;2022-09-29T06:00:00;10.5;;;6.1;;
61570;SDS011;47463;49.884;10.010;2022-09-29T06:05:00;10.5;;;6.1;;
61570;SDS011;47463;49.884;10.010;2022-09-29T06:10:00;8.3;;;5.5;;
61570;SDS011;47463;49.884;10.010;2022-09-29T06:15:00;8.1;;;5.5;;
61570;SDS011;47463;49.884;10.010;2022-09-29T06:20:00;8.1;;;5.5;;
61570;SDS011;47463;49.884;10.010;2022-09-29T06:25:00;12.1;;;6.6;;
61570;SDS011;47463;49.884;10.010;2022-09-29T06:30:00;12.1;;;6.6;;
61570;SDS011;47463;49.884;10.010;2022-09-29T06:35:00;10.8;;;7.6;;
61570;SDS011;47463;49.884;10.010;2022-09-29T06:40:00;10.8;;;7.6;;
61570;SDS011;47463;49.884;10.010;2022-09-29T06:45:00;13.1;;;6.9;;
61570;SDS011;47463;49.884;10.010;2022-09-29T06:50:00;13.1;;;6.9;;
61570;SDS011;47463;49.884;10.010;2022-09-29T06:55:00;11.6;;;7.5;;
61570;SDS011;47463;49.884;10.010;2022-09-29T07:00:00;11.6;;;7.5;;
61570;SDS011;47463;49.884;10.010;2022-09-29T07:05:00;10.8;;;7.2;;
61570;SDS011;47463;49.884;10.010;2022-09-29T07:10:00;10.8;;;7.2;;
61570;SDS011;47463;49.884;10.010;2022-09-29T07:15:00;10;;;7.8;;
61570;SDS011;47463;49.884;10.010;2022-09-29T07:20:00;10;;;7.8;;
61570;SDS011;47463;49.884;10.010;2022-09-29T07:25:00;11.3;;;8.7;;
61570;SDS011;47463;49.884;10.010;2022-09-29T07:30:00;11.3;;;8.7;;
61570;SDS011;47463;49.884;10.010;2022-09-29T07:35:00;17.5;;;10.6;;
61570;SDS011;47463;49.884;10.010;2022-09-29T07:40:00;17.5;;;10.6;;
61570;SDS011;47463;49.884;10.010;2022-09-29T07:45:00;16.9;;;11.5;;
61570;SDS011;47463;49.884;10.010;2022-09-29T07:50:00;16.9;;;11.5;;
61570;SDS011;47463;49.884;10.010;2022-09-29T07:55:00;20.1;;;13.2;;
61570;SDS011;47463;49.884;10.010;2022-09-29T08:00:00;20.1;;;13.2;;
61570;SDS011;47463;49.884;10.010;2022-09-29T08:05:00;20.4;;;13.2;;
61570;SDS011;47463;49.884;10.010;2022-09-29T08:10:00;20.4;;;13.2;;
61570;SDS011;47463;49.884;10.010;2022-09-29T08:15:00;21.5;;;14.4;;
61570;SDS011;47463;49.884;10.010;2022-09-29T08:20:00;21.5;;;14.4;;
61570;SDS011;47463;49.884;10.010;2022-09-29T08:25:00;20.7;;;13.8;;
61570;SDS011;47463;49.884;10.010;2022-09-29T08:30:00;20.7;;;13.8;;
61570;SDS011;47463;49.884;10.010;2022-09-29T08:35:00;25.1;;;15.9;;
61570;SDS011;47463;49.884;10.010;2022-09-29T08:40:00;25.1;;;15.9;;
61570;SDS011;47463;49.884;10.010;2022-09-29T08:45:00;25.8;;;17.1;;
61570;SDS011;47463;49.884;10.010;2022-09-29T08:50:01;25.8;;;17.1;;
61570;SDS011;47463;49.884;10.010;2022-09-29T08:55:02;24.9;;;17.4;;
61570;SDS011;47463;49.884;10.010;2022-09-29T09:00:00;24.9;;;17.4;;
61570;SDS011;47463;49.884;10.010;2022-09-29T09:05:07;21.8;;;15.1;;
61570;SDS011;47463;49.884;10.010;2022-09-29T09:10:02;21.8;;;15.1;;
61570;SDS011;47463;49.884;10.010;2022-09-29T09:15:03;15.8;;;12.2;;
61570;SDS011;47463;49.884;10.010;2022-09-29T09:20:02;15.8;;;12.2;;
61570;SDS011;47463;49.884;10.010;2022-09-29T09:25:00;14;;;11.5;;
61570;SDS011;47463;49.884;10.010;2022-09-29T09:30:01;14;;;11.5;;
61570;SDS011;47463;49.884;10.010;2022-09-29T09:35:00;13.2;;;11.4;;
61570;SDS011;47463;49.884;10.010;2022-09-29T09:40:00;13.2;;;11.4;;
61570;SDS011;47463;49.884;10.010;2022-09-29T09:45:01;12.3;;;9.8;;
61570;SDS011;47463;49.884;10.010;2022-09-29T09:50:00;12.3;;;9.8;;
61570;SDS011;47463;49.884;10.010;2022-09-29T09:55:00;13.7;;;11;;
61570;SDS011;47463;49.884;10.010;2022-09-29T10:00:06;13.7;;;11;;
61570;SDS011;47463;49.884;10.010;2022-09-29T10:05:00;15.5;;;11.3;;
61570;SDS011;47463;49.884;10.010;2022-09-29T10:10:01;15.5;;;11.3;;
61570;SDS011;47463;49.884;10.010;2022-09-29T10:15:00;11.6;;;8.7;;
61570;SDS011;47463;49.884;10.010;2022-09-29T10:20:01;11.6;;;8.7;;
61570;SDS011;47463;49.884;10.010;2022-09-29T10:25:11;10.3;;;7;;
61570;SDS011;47463;49.884;10.010;2022-09-29T10:30:00;10.3;;;7;;
61570;SDS011;47463;49.884;10.010;2022-09-29T10:35:00;11.7;;;7.3;;
61570;SDS011;47463;49.884;10.010;2022-09-29T10:40:02;11.7;;;7.3;;
61570;SDS011;47463;49.884;10.010;2022-09-29T10:45:00;9.2;;;6;;
61570;SDS011;47463;49.884;10.010;2022-09-29T10:50:10;9.2;;;6;;
61570;SDS011;47463;49.884;10.010;2022-09-29T10:55:00;8.1;;;4.8;;
61570;SDS011;47463;49.884;10.010;2022-09-29T11:00:00;8.1;;;4.8;;
61570;SDS011;47463;49.884;10.010;2022-09-29T11:05:01;10;;;4.6;;
61570;SDS011;47463;49.884;10.010;2022-09-29T11:10:00;10;;;4.6;;
61570;SDS011;47463;49.884;10.010;2022-09-29T11:15:00;6.4;;;4.2;;
61570;SDS011;47463;49.884;10.010;2022-09-29T11:20:00;6.4;;;4.2;;
61570;SDS011;47463;49.884;10.010;2022-09-29T11:25:06;6.8;;;3.2;;
61570;SDS011;47463;49.884;10.010;2022-09-29T11:30:00;6.8;;;3.2;;
61570;SDS011;47463;49.884;10.010;2022-09-29T11:35:04;7.9;;;3.7;;
61570;SDS011;47463;49.884;10.010;2022-09-29T11:40:01;7.9;;;3.7;;
61570;SDS011;47463;49.884;10.010;2022-09-29T11:45:00;7.9;;;3.7;;
61570;SDS011;47463;49.884;10.010;2022-09-29T11:50:02;7.6;;;3.5;;
61570;SDS011;47463;49.884;10.010;2022-09-29T11:55:06;10.1;;;6;;
61570;SDS011;47463;49.884;10.010;2022-09-29T12:05:02;8.9;;;6.1;;
61570;SDS011;47463;49.884;10.010;2022-09-29T12:10:03;8.9;;;6.1;;
61570;SDS011;47463;49.884;10.010;2022-09-29T12:15:06;9.7;;;5.5;;
61570;SDS011;47463;49.884;10.010;2022-09-29T12:20:01;9.7;;;5.5;;
61570;SDS011;47463;49.884;10.010;2022-09-29T12:25:00;8.8;;;5.9;;
61570;SDS011;47463;49.884;10.010;2022-09-29T12:30:01;8.8;;;5.9;;
61570;SDS011;47463;49.884;10.010;2022-09-29T12:35:01;10.3;;;6.3;;
61570;SDS011;47463;49.884;10.010;2022-09-29T12:40:02;10.3;;;6.3;;
61570;SDS011;47463;49.884;10.010;2022-09-29T12:45:00;9;;;5.6;;
61570;SDS011;47463;49.884;10.010;2022-09-29T12:50:01;9;;;5.6;;
61570;SDS011;47463;49.884;10.010;2022-09-29T12:55:00;8.7;;;5.6;;
61570;SDS011;47463;49.884;10.010;2022-09-29T13:00:00;8.7;;;5.6;;
61570;SDS011;47463;49.884;10.010;2022-09-29T13:05:04;11.1;;;6;;
61570;SDS011;47463;49.884;10.010;2022-09-29T13:10:03;11.1;;;6;;
61570;SDS011;47463;49.884;10.010;2022-09-29T13:15:05;8.1;;;5.1;;
61570;SDS011;47463;49.884;10.010;2022-09-29T13:20:04;8.1;;;5.1;;
61570;SDS011;47463;49.884;10.010;2022-09-29T13:25:01;9.5;;;5.1;;
61570;SDS011;47463;49.884;10.010;2022-09-29T13:30:02;9.5;;;5.1;;
61570;SDS011;47463;49.884;10.010;2022-09-29T13:35:00;11.8;;;6.3;;
61570;SDS011;47463;49.884;10.010;2022-09-29T13:40:00;11.8;;;6.3;;
61570;SDS011;47463;49.884;10.010;2022-09-29T13:45:16;9.9;;;6.3;;
61570;SDS011;47463;49.884;10.010;2022-09-29T13:50:01;9.9;;;6.3;;
61570;SDS011;47463;49.884;10.010;2022-09-29T13:55:09;10.5;;;6.2;;
61570;SDS011;47463;49.884;10.010;2022-09-29T14:00:03;10.5;;;6.2;;
61570;SDS011;47463;49.884;10.010;2022-09-29T14:05:00;10.4;;;6.7;;
61570;SDS011;47463;49.884;10.010;2022-09-29T14:10:02;10.4;;;6.7;;
61570;SDS011;47463;49.884;10.010;2022-09-29T14:15:00;11.1;;;6.2;;
61570;SDS011;47463;49.884;10.010;2022-09-29T14:20:01;11.1;;;6.2;;
61570;SDS011;47463;49.884;10.010;2022-09-29T14:25:22;7.5;;;5.3;;
61570;SDS011;47463;49.884;10.010;2022-09-29T14:30:02;7.5;;;5.3;;
61570;SDS011;47463;49.884;10.010;2022-09-29T14:35:00;10;;;5.6;;
61570;SDS011;47463;49.884;10.010;2022-09-29T14:40:00;10;;;5.6;;
61570;SDS011;47463;49.884;10.010;2022-09-29T14:45:00;7.1;;;5.3;;
61570;SDS011;47463;49.884;10.010;2022-09-29T14:50:20;7.1;;;5.3;;
61570;SDS011;47463;49.884;10.010;2022-09-29T14:55:02;7.1;;;4.6;;
61570;SDS011;47463;49.884;10.010;2022-09-29T15:00:02;7.1;;;4.6;;
61570;SDS011;47463;49.884;10.010;2022-09-29T15:05:07;3.2;;;1.7;;
61570;SDS011;47463;49.884;10.010;2022-09-29T15:10:00;3.2;;;1.7;;
61570;SDS011;47463;49.884;10.010;2022-09-29T15:15:00;4.9;;;2.4;;
61570;SDS011;47463;49.884;10.010;2022-09-29T15:20:01;4.9;;;2.4;;
61570;SDS011;47463;49.884;10.010;2022-09-29T15:25:04;4.2;;;2.2;;
61570;SDS011;47463;49.884;10.010;2022-09-29T15:30:00;4.2;;;2.2;;
61570;SDS011;47463;49.884;10.010;2022-09-29T15:35:00;4.4;;;2;;
61570;SDS011;47463;49.884;10.010;2022-09-29T15:40:00;4.4;;;2;;
61570;SDS011;47463;49.884;10.010;2022-09-29T15:45:00;2.5;;;1.8;;
61570;SDS011;47463;49.884;10.010;2022-09-29T15:50:02;2.5;;;1.8;;
61570;SDS011;47463;49.884;10.010;2022-09-29T15:55:00;5.1;;;2.7;;
61570;SDS011;47463;49.884;10.010;2022-09-29T16:00:00;5.1;;;2.7;;
61570;SDS011;47463;49.884;10.010;2022-09-29T16:05:01;7.7;;;3.5;;
61570;SDS011;47463;49.884;10.010;2022-09-29T16:10:01;7.7;;;3.5;;
61570;SDS011;47463;49.884;10.010;2022-09-29T16:15:00;6;;;3.5;;
61570;SDS011;47463;49.884;10.010;2022-09-29T16:20:00;6;;;3.5;;
61570;SDS011;47463;49.884;10.010;2022-09-29T16:25:08;5.4;;;2.8;;
61570;SDS011;47463;49.884;10.010;2022-09-29T16:30:03;5.4;;;2.8;;
61570;SDS011;47463;49.884;10.010;2022-09-29T16:35:08;15.3;;;10.5;;
61570;SDS011;47463;49.884;10.010;2022-09-29T16:40:00;15.3;;;10.5;;
61570;SDS011;47463;49.884;10.010;2022-09-29T16:45:00;7.1;;;3;;
61570;SDS011;47463;49.884;10.010;2022-09-29T16:50:00;7.1;;;3;;
61570;SDS011;47463;49.884;10.010;2022-09-29T16:55:05;7;;;3.1;;
61570;SDS011;47463;49.884;10.010;2022-09-29T17:00:01;7;;;3.1;;
61570;SDS011;47463;49.884;10.010;2022-09-29T17:05:00;6.1;;;3.8;;
61570;SDS011;47463;49.884;10.010;2022-09-29T17:10:00;6.1;;;3.8;;
61570;SDS011;47463;49.884;10.010;2022-09-29T17:15:00;6.3;;;3.1;;
61570;SDS011;47463;49.884;10.010;2022-09-29T17:20:00;6.3;;;3.1;;
61570;SDS011;47463;49.884;10.010;2022-09-29T17:25:00;4;;;2.5;;
61570;SDS011;47463;49.884;10.010;2022-09-29T17:30:00;4;;;2.5;;
61570;SDS011;47463;49.884;10.010;2022-09-29T17:35:00;6.3;;;3.1;;
61570;SDS011;47463;49.884;10.010;2022-09-29T17:40:00;6.3;;;3.1;;
61570;SDS011;47463;49.884;10.010;2022-09-29T17:45:00;5.7;;;3.2;;
61570;SDS011;47463;49.884;10.010;2022-09-29T17:50:00;5.7;;;3.2;;
61570;SDS011;47463;49.884;10.010;2022-09-29T17:55:00;5;;;2.9;;
61570;SDS011;47463;49.884;10.010;2022-09-29T18:00:00;5;;;2.9;;
61570;SDS011;47463;49.884;10.010;2022-09-29T18:05:00;8;;;3;;
61570;SDS011;47463;49.884;10.010;2022-09-29T18:10:00;8;;;3;;
61570;SDS011;47463;49.884;10.010;2022-09-29T18:15:00;4.8;;;2.8;;
61570;SDS011;47463;49.884;10.010;2022-09-29T18:20:00;4.8;;;2.8;;
61570;SDS011;47463;49.884;10.010;2022-09-29T18:25:00;6.9;;;3.6;;
61570;SDS011;47463;49.884;10.010;2022-09-29T18:30:00;6.9;;;3.6;;
61570;SDS011;47463;49.884;10.010;2022-09-29T18:35:00;5.3;;;2.9;;
61570;SDS011;47463;49.884;10.010;2022-09-29T18:40:00;5.3;;;2.9;;
61570;SDS011;47463;49.884;10.010;2022-09-29T18:45:00;7.6;;;3.3;;
61570;SDS011;47463;49.884;10.010;2022-09-29T18:50:00;7.6;;;3.3;;
61570;SDS011;47463;49.884;10.010;2022-09-29T18:55:00;5.3;;;3.2;;
61570;SDS011;47463;49.884;10.010;2022-09-29T19:00:00;5.3;;;3.2;;
61570;SDS011;47463;49.884;10.010;2022-09-29T19:05:00;5.2;;;3.4;;
61570;SDS011;47463;49.884;10.010;2022-09-29T19:10:00;5.2;;;3.4;;
61570;SDS011;47463;49.884;10.010;2022-09-29T19:15:00;8.6;;;3.9;;
61570;SDS011;47463;49.884;10.010;2022-09-29T19:20:00;8.6;;;3.9;;
61570;SDS011;47463;49.884;10.010;2022-09-29T19:25:00;6;;;3.7;;
61570;SDS011;47463;49.884;10.010;2022-09-29T19:30:00;6;;;3.7;;
61570;SDS011;47463;49.884;10.010;2022-09-29T19:35:00;6.6;;;4.2;;
61570;SDS011;47463;49.884;10.010;2022-09-29T19:40:00;6.6;;;4.2;;
61570;SDS011;47463;49.884;10.010;2022-09-29T19:45:01;6.7;;;3.7;;
61570;SDS011;47463;49.884;10.010;2022-09-29T19:50:00;6.7;;;3.7;;
61570;SDS011;47463;49.884;10.010;2022-09-29T19:55:00;6.8;;;4.2;;
61570;SDS011;47463;49.884;10.010;2022-09-29T20:00:00;6.8;;;4.2;;
61570;SDS011;47463;49.884;10.010;2022-09-29T20:05:00;8.6;;;4.1;;
61570;SDS011;47463;49.884;10.010;2022-09-29T20:10:00;8.6;;;4.1;;
61570;SDS011;47463;49.884;10.010;2022-09-29T20:15:00;6.2;;;4;;
61570;SDS011;47463;49.884;10.010;2022-09-29T20:20:00;6.2;;;4;;
61570;SDS011;47463;49.884;10.010;2022-09-29T20:25:00;6.4;;;3.4;;
61570;SDS011;47463;49.884;10.010;2022-09-29T20:30:00;6.4;;;3.4;;
61570;SDS011;47463;49.884;10.010;2022-09-29T20:35:00;7.9;;;4.1;;
61570;SDS011;47463;49.884;10.010;2022-09-29T20:40:00;7.9;;;4.1;;
61570;SDS011;47463;49.884;10.010;2022-09-29T20:45:00;5.2;;;3.4;;
61570;SDS011;47463;49.884;10.010;2022-09-29T20:50:00;5.2;;;3.4;;
61570;SDS011;47463;49.884;10.010;2022-09-29T20:55:00;5.6;;;3.3;;
61570;SDS011;47463;49.884;10.010;2022-09-29T21:00:00;5.6;;;3.3;;
61570;SDS011;47463;49.884;10.010;2022-09-29T21:05:00;4.6;;;2.9;;
61570;SDS011;47463;49.884;10.010;2022-09-29T21:10:00;4.6;;;2.9;;
61570;SDS011;47463;49.884;10.010;2022-09-29T21:15:00;4.6;;;2.9;;
61570;SDS011;47463;49.884;10.010;2022-09-29T21:20:00;7.3;;;3.2;;
61570;SDS011;47463;49.884;10.010;2022-09-29T21:25:00;6.9;;;3.4;;
61570;SDS011;47463;49.884;10.010;2022-09-29T21:30:00;6.9;;;3.4;;
61570;SDS011;47463;49.884;10.010;2022-09-29T21:35:00;5.7;;;2.8;;
61570;SDS011;47463;49.884;10.010;2022-09-29T21:40:00;5.7;;;2.8;;
61570;SDS011;47463;49.884;10.010;2022-09-29T21:45:00;5.3;;;3.3;;
61570;SDS011;47463;49.884;10.010;2022-09-29T21:50:00;5.3;;;3.3;;
61570;SDS011;47463;49.884;10.010;2022-09-29T21:55:00;5.6;;;2.6;;
61570;SDS011;47463;49.884;10.010;2022-09-29T22:00:00;5.6;;;2.6;;
61570;SDS011;47463;49.884;10.010;2022-09-29T22:05:00;4.6;;;3;;
61570;SDS011;47463;49.884;10.010;2022-09-29T22:10:00;4.6;;;3;;
61570;SDS011;47463;49.884;10.010;2022-09-29T22:15:00;7.9;;;2.7;;
61570;SDS011;47463;49.884;10.010;2022-09-29T22:20:00;7.9;;;2.7;;
61570;SDS011;47463;49.884;10.010;2022-09-29T22:25:00;5.9;;;2.7;;
61570;SDS011;47463;49.884;10.010;2022-09-29T22:30:00;5.9;;;2.7;;
61570;SDS011;47463;49.884;10.010;2022-09-29T22:35:00;6.6;;;3.4;;
61570;SDS011;47463;49.884;10.010;2022-09-29T22:40:00;6.6;;;3.4;;
61570;SDS011;47463;49.884;10.010;2022-09-29T22:45:00;7.1;;;3.6;;
61570;SDS011;47463;49.884;10.010;2022-09-29T22:50:00;7.1;;;3.6;;
61570;SDS011;47463;49.884;10.010;2022-09-29T22:55:00;6.5;;;3.2;;
61570;SDS011;47463;49.884;10.010;2022-09-29T23:00:00;6.5;;;3.2;;
61570;SDS011;47463;49.884;10.010;2022-09-29T23:05:00;5.3;;;3.6;;
61570;SDS011;47463;49.884;10.010;2022-09-29T23:10:00;5.3;;;3.6;;
61570;SDS011;47463;49.884;10.010;2022-09-29T23:15:00;5.1;;;3.2;;
61570;SDS011;47463;49.884;10.010;2022-09-29T23:20:00;5.1;;;3.2;;
61570;SDS011;47463;49.884;10.010;2022-09-29T23:25:00;7.2;;;3.9;;
61570;SDS011;47463;49.884;10.010;2022-09-29T23:30:00;7.2;;;3.9;;
61570;SDS011;47463;49.884;10.010;2022-09-29T23:35:00;7.2;;;4.3;;
61570;SDS011;47463;49.884;10.010;2022-09-29T23:40:00;7.2;;;4.3;;
61570;SDS011;47463;49.884;10.010;2022-09-29T23:45:00;5;;;3.7;;
61570;SDS011;47463;49.884;10.010;2022-09-29T23:50:00;5;;;3.7;;
61570;SDS011;47463;49.884;10.010;2022-09-29T23:55:00;6.7;;;3.9;;
